createdAt,value
2022-12-19T00:00:13.583Z,51.00
2022-12-19T00:02:42.206Z,51.00
2022-12-19T00:05:10.463Z,51.10
2022-12-19T00:07:37.236Z,51.00
2022-12-19T00:10:04.687Z,51.00
2022-12-19T00:12:32.924Z,51.00
2022-12-19T00:14:59.639Z,51.20
2022-12-19T00:17:28.504Z,51.20
2022-12-19T00:19:55.240Z,51.20
2022-12-19T00:22:21.959Z,51.10
2022-12-19T00:24:48.750Z,51.10
2022-12-19T00:27:15.532Z,51.00
2022-12-19T00:29:43.623Z,51.00
2022-12-19T00:32:10.369Z,51.00
2022-12-19T00:34:40.218Z,51.10
2022-12-19T00:37:06.966Z,51.00
2022-12-19T00:39:33.763Z,51.00
2022-12-19T00:42:00.521Z,50.90
2022-12-19T00:44:27.252Z,51.00
2022-12-19T00:46:55.362Z,51.00
2022-12-19T00:49:22.098Z,51.20
2022-12-19T00:51:48.879Z,51.10
2022-12-19T00:54:15.806Z,51.10
2022-12-19T00:56:43.228Z,51.10
2022-12-19T00:59:10.101Z,51.10
2022-12-19T01:01:40.417Z,51.20
2022-12-19T01:04:29.770Z,51.90
2022-12-19T01:06:58.043Z,51.10
2022-12-19T01:09:29.012Z,51.20
2022-12-19T01:11:55.736Z,51.20
2022-12-19T01:14:23.375Z,51.20
2022-12-19T01:16:50.827Z,51.20
2022-12-19T01:19:19.067Z,51.20
2022-12-19T01:21:45.863Z,51.20
2022-12-19T01:24:12.807Z,51.20
2022-12-19T01:26:40.481Z,51.10
2022-12-19T01:29:07.217Z,51.20
2022-12-19T01:31:34.103Z,51.10
2022-12-19T01:34:01.291Z,51.10
2022-12-19T01:36:29.563Z,51.10
2022-12-19T01:38:56.502Z,51.20
2022-12-19T01:41:23.535Z,51.20
2022-12-19T01:43:59.385Z,51.20
2022-12-19T01:46:30.172Z,51.20
2022-12-19T01:48:57.366Z,51.20
2022-12-19T01:51:28.924Z,51.30
2022-12-19T01:54:01.573Z,51.20
2022-12-19T01:56:31.537Z,51.30
2022-12-19T01:59:06.477Z,51.30
2022-12-19T02:01:34.608Z,51.20
2022-12-19T02:04:02.273Z,51.30
2022-12-19T02:06:30.180Z,51.40
2022-12-19T02:08:58.564Z,51.40
2022-12-19T02:11:25.301Z,51.40
2022-12-19T02:13:52.238Z,51.30
2022-12-19T02:16:30.142Z,51.30
2022-12-19T02:19:09.224Z,51.30
2022-12-19T02:21:50.563Z,51.30
2022-12-19T02:24:54.789Z,51.40
2022-12-19T02:27:58.280Z,51.40
2022-12-19T02:30:57.244Z,51.40
2022-12-19T02:33:33.824Z,51.50
2022-12-19T02:36:07.435Z,51.60
2022-12-19T02:38:39.906Z,51.50
2022-12-19T02:41:13.443Z,51.40
2022-12-19T02:43:44.752Z,51.40
2022-12-19T02:46:16.769Z,51.50
2022-12-19T02:48:44.292Z,51.50
2022-12-19T02:51:11.086Z,51.50
2022-12-19T02:53:38.895Z,51.50
2022-12-19T02:56:20.711Z,51.40
2022-12-19T02:58:59.451Z,51.50
2022-12-19T03:01:42.238Z,51.50
2022-12-19T03:04:17.600Z,51.40
2022-12-19T03:06:51.511Z,51.40
2022-12-19T03:09:26.397Z,51.60
2022-12-19T03:12:00.374Z,51.50
2022-12-19T03:14:29.170Z,51.50
2022-12-19T03:17:02.050Z,51.50
2022-12-19T03:19:28.855Z,51.50
2022-12-19T03:21:56.025Z,51.50
2022-12-19T03:24:22.873Z,51.50
2022-12-19T03:26:54.802Z,51.50
2022-12-19T03:29:25.250Z,51.50
2022-12-19T03:31:52.801Z,51.50
2022-12-19T03:34:25.274Z,51.60
2022-12-19T03:36:55.968Z,51.30
2022-12-19T03:39:24.997Z,51.40
2022-12-19T03:41:52.788Z,51.40
2022-12-19T03:44:22.173Z,51.50
2022-12-19T03:46:55.018Z,51.40
2022-12-19T03:49:23.198Z,51.40
2022-12-19T03:51:59.988Z,51.30
2022-12-19T03:54:29.685Z,51.40
2022-12-19T03:57:01.979Z,51.40
2022-12-19T03:59:34.402Z,51.40
2022-12-19T04:02:02.580Z,51.40
2022-12-19T04:04:34.933Z,51.40
2022-12-19T04:07:03.167Z,51.40
2022-12-19T04:09:32.307Z,51.40
2022-12-19T04:12:03.438Z,51.30
2022-12-19T04:14:32.071Z,51.40
2022-12-19T04:17:07.121Z,51.40
2022-12-19T04:19:42.645Z,51.40
2022-12-19T04:22:14.847Z,51.40
2022-12-19T04:24:44.230Z,51.40
2022-12-19T04:27:12.568Z,51.40
2022-12-19T04:29:39.932Z,51.50
2022-12-19T04:32:08.158Z,51.40
2022-12-19T04:34:41.390Z,51.40
2022-12-19T04:37:10.582Z,51.40
2022-12-19T04:39:37.375Z,51.40
2022-12-19T04:42:04.285Z,51.40
2022-12-19T04:44:30.998Z,51.40
2022-12-19T04:46:57.761Z,51.50
2022-12-19T04:49:24.571Z,51.50
2022-12-19T04:51:52.707Z,51.70
2022-12-19T04:54:19.802Z,51.50
2022-12-19T04:56:46.550Z,51.40
2022-12-19T04:59:13.289Z,51.50
2022-12-19T05:01:40.103Z,51.50
2022-12-19T05:04:06.905Z,51.50
2022-12-19T05:06:33.656Z,51.70
2022-12-19T05:09:01.747Z,51.60
2022-12-19T05:11:28.645Z,51.70
2022-12-19T05:13:55.466Z,51.60
2022-12-19T05:16:22.356Z,51.80
2022-12-19T05:18:49.136Z,51.70
2022-12-19T05:21:16.031Z,51.70
2022-12-19T05:23:42.758Z,51.70
2022-12-19T05:26:11.818Z,51.80
2022-12-19T05:28:38.546Z,51.80
2022-12-19T05:31:08.134Z,51.70
2022-12-19T05:33:35.411Z,52.60
2022-12-19T05:36:02.906Z,51.90
2022-12-19T05:38:30.465Z,51.90
2022-12-19T05:40:57.594Z,51.90
2022-12-19T05:43:25.921Z,52.50
2022-12-19T05:45:52.731Z,51.90
2022-12-19T05:48:19.448Z,51.90
2022-12-19T05:50:49.884Z,51.90
2022-12-19T05:53:19.620Z,51.90
2022-12-19T05:55:48.677Z,52.00
2022-12-19T05:58:15.467Z,51.90
2022-12-19T06:00:43.655Z,51.90
2022-12-19T06:03:10.825Z,52.00
2022-12-19T06:05:38.561Z,52.00
2022-12-19T06:08:05.704Z,52.10
2022-12-19T06:10:32.536Z,52.10
2022-12-19T06:12:59.324Z,52.00
2022-12-19T06:15:26.085Z,52.00
2022-12-19T06:17:54.847Z,52.00
2022-12-19T06:20:21.614Z,52.10
2022-12-19T06:22:48.378Z,52.10
2022-12-19T06:25:15.198Z,52.10
2022-12-19T06:27:41.962Z,52.10
2022-12-19T06:30:09.606Z,52.20
2022-12-19T06:32:38.108Z,52.20
2022-12-19T06:35:07.937Z,52.10
2022-12-19T06:37:36.878Z,52.20
2022-12-19T06:40:07.364Z,52.10
2022-12-19T06:42:34.123Z,52.20
2022-12-19T06:45:00.849Z,52.20
2022-12-19T06:47:27.612Z,52.20
2022-12-19T06:49:54.387Z,52.20
2022-12-19T06:52:22.523Z,52.30
2022-12-19T06:54:49.279Z,52.30
2022-12-19T06:57:16.027Z,52.20
2022-12-19T06:59:42.771Z,52.40
2022-12-19T07:02:21.762Z,52.50
2022-12-19T07:04:51.634Z,52.40
2022-12-19T07:07:18.726Z,52.50
2022-12-19T07:09:47.633Z,52.50
2022-12-19T07:12:14.366Z,52.50
2022-12-19T07:14:41.113Z,52.40
2022-12-19T07:17:07.996Z,52.50
2022-12-19T07:19:35.639Z,52.40
2022-12-19T07:22:03.423Z,52.50
2022-12-19T07:24:30.558Z,52.50
2022-12-19T07:26:58.966Z,52.50
2022-12-19T07:29:25.860Z,52.60
2022-12-19T07:31:52.824Z,52.70
2022-12-19T07:34:19.887Z,52.50
2022-12-19T07:36:46.753Z,52.70
2022-12-19T07:39:13.520Z,52.70
2022-12-19T07:41:40.263Z,52.60
2022-12-19T07:44:08.648Z,52.70
2022-12-19T07:46:35.552Z,52.70
2022-12-19T07:49:02.300Z,53.40
2022-12-19T07:51:29.163Z,52.80
2022-12-19T07:53:56.075Z,52.90
2022-12-19T07:56:22.797Z,52.90
2022-12-19T07:58:49.936Z,52.80
2022-12-19T08:01:18.528Z,53.00
2022-12-19T08:03:45.321Z,53.10
2022-12-19T08:06:12.109Z,53.00
2022-12-19T08:08:38.808Z,52.80
2022-12-19T08:11:10.679Z,53.00
2022-12-19T08:13:43.151Z,52.90
2022-12-19T08:16:12.919Z,52.80
2022-12-19T08:18:41.078Z,53.00
2022-12-19T08:21:08.115Z,52.90
2022-12-19T08:23:34.907Z,52.90
2022-12-19T08:26:02.888Z,52.90
2022-12-19T08:28:29.836Z,52.80
2022-12-19T08:30:56.664Z,52.90
2022-12-19T08:33:23.951Z,52.90
2022-12-19T08:35:52.037Z,52.80
2022-12-19T08:38:18.778Z,53.00
2022-12-19T08:40:52.317Z,52.90
2022-12-19T08:43:19.039Z,53.70
2022-12-19T08:45:48.170Z,53.00
2022-12-19T08:48:14.964Z,53.20
2022-12-19T08:50:49.517Z,53.10
2022-12-19T08:53:22.753Z,53.00
2022-12-19T08:55:54.337Z,53.00
2022-12-19T08:58:21.089Z,53.10
2022-12-19T09:00:54.682Z,53.20
2022-12-19T09:03:23.829Z,53.10
2022-12-19T09:06:00.335Z,53.10
2022-12-19T09:08:34.681Z,53.30
2022-12-19T09:11:03.128Z,53.50
2022-12-19T09:13:30.886Z,53.40
2022-12-19T09:16:01.634Z,53.50
2022-12-19T09:18:31.466Z,53.40
2022-12-19T09:20:59.008Z,53.50
2022-12-19T09:23:26.421Z,53.80
2022-12-19T09:25:55.291Z,53.80
2022-12-19T09:28:27.640Z,53.90
2022-12-19T09:30:55.781Z,53.90
2022-12-19T09:33:22.688Z,54.10
2022-12-19T09:35:50.612Z,54.00
2022-12-19T09:38:19.736Z,53.80
2022-12-19T09:41:01.882Z,54.00
2022-12-19T09:43:41.755Z,54.00
2022-12-19T09:46:16.501Z,54.00
2022-12-19T09:48:49.335Z,54.30
2022-12-19T09:51:30.697Z,54.10
2022-12-19T09:54:02.587Z,54.20
2022-12-19T09:56:39.424Z,54.30
2022-12-19T09:59:22.243Z,54.40
2022-12-19T10:01:55.814Z,54.60
2022-12-19T10:04:26.781Z,54.70
2022-12-19T10:07:15.964Z,54.50
2022-12-19T10:10:56.814Z,54.80
2022-12-19T10:12:51.391Z,54.60
2022-12-19T10:15:25.996Z,54.60
2022-12-19T10:18:13.794Z,54.60
2022-12-19T10:20:45.999Z,54.50
2022-12-19T10:23:31.607Z,55.60
2022-12-19T10:26:03.416Z,54.70
2022-12-19T10:28:44.232Z,54.70
2022-12-19T10:31:22.089Z,54.80
2022-12-19T10:33:55.548Z,54.90
2022-12-19T10:36:36.268Z,54.70
2022-12-19T10:39:17.761Z,54.80
2022-12-19T10:41:48.593Z,54.70
2022-12-19T10:44:18.051Z,54.70
2022-12-19T10:46:46.529Z,55.80
2022-12-19T10:49:15.295Z,55.00
2022-12-19T10:51:42.715Z,54.80
2022-12-19T10:54:09.735Z,54.90
2022-12-19T10:56:37.913Z,55.00
2022-12-19T10:59:17.885Z,55.00
2022-12-19T11:01:45.555Z,55.00
2022-12-19T11:04:28.567Z,55.20
2022-12-19T11:07:07.103Z,55.10
2022-12-19T11:09:38.422Z,55.20
2022-12-19T11:16:32.283Z,55.10
2022-12-19T11:20:39.183Z,55.30
2022-12-19T11:24:27.976Z,55.40
2022-12-19T11:29:30.354Z,55.40
2022-12-19T11:29:30.580Z,55.40
2022-12-19T11:29:37.050Z,55.50
2022-12-19T11:32:44.222Z,55.50
2022-12-19T11:35:19.679Z,55.60
2022-12-19T11:37:55.400Z,55.50
2022-12-19T11:40:32.745Z,55.60
2022-12-19T11:43:41.974Z,55.60
2022-12-19T11:45:57.598Z,55.80
2022-12-19T11:48:36.312Z,55.70
2022-12-19T11:51:12.395Z,55.40
2022-12-19T11:53:47.663Z,55.60
2022-12-19T11:56:17.189Z,55.60
2022-12-19T11:58:47.370Z,55.50
2022-12-19T12:01:23.520Z,55.40
2022-12-19T12:04:22.516Z,55.70
2022-12-19T12:06:52.442Z,55.50
2022-12-19T12:13:14.858Z,55.50
2022-12-19T12:20:11.230Z,55.80
2022-12-19T12:26:38.382Z,55.80
2022-12-19T12:31:04.927Z,55.70
2022-12-19T12:31:19.293Z,55.80
2022-12-19T12:31:49.076Z,55.70
2022-12-19T12:31:57.249Z,55.60
2022-12-19T12:31:57.749Z,55.60
2022-12-19T12:35:33.021Z,55.60
2022-12-19T12:39:02.531Z,55.60
2022-12-19T12:41:41.371Z,55.70
2022-12-19T12:44:11.913Z,55.50
2022-12-19T12:46:42.772Z,55.50
2022-12-19T12:49:24.189Z,55.70
2022-12-19T12:51:51.925Z,55.70
2022-12-19T12:54:21.306Z,55.40
2022-12-19T12:56:48.106Z,55.40
2022-12-19T12:59:23.903Z,55.40
2022-12-19T13:01:54.087Z,55.40
2022-12-19T13:04:33.482Z,55.50
2022-12-19T13:07:26.752Z,55.40
2022-12-19T13:10:16.182Z,55.30
2022-12-19T13:12:55.027Z,55.20
2022-12-19T13:15:34.460Z,55.50
2022-12-19T13:18:09.521Z,55.50
2022-12-19T13:20:43.282Z,55.40
2022-12-19T13:23:22.876Z,55.50
2022-12-19T13:25:52.997Z,55.60
2022-12-19T13:28:41.076Z,55.60
2022-12-19T13:31:22.859Z,55.50
2022-12-19T13:34:18.700Z,55.50
2022-12-19T13:39:54.618Z,55.50
2022-12-19T13:40:03.477Z,55.10
2022-12-19T13:42:35.571Z,55.10
2022-12-19T13:45:07.350Z,55.20
2022-12-19T13:47:37.708Z,55.30
2022-12-19T13:50:07.252Z,55.50
2022-12-19T13:52:34.027Z,55.40
2022-12-19T13:55:00.815Z,55.30
2022-12-19T13:57:30.316Z,55.50
2022-12-19T14:00:01.893Z,55.60
2022-12-19T14:02:32.133Z,55.70
2022-12-19T14:04:59.952Z,55.50
2022-12-19T14:07:36.465Z,55.70
2022-12-19T14:11:31.277Z,56.90
2022-12-19T14:13:48.800Z,56.70
2022-12-19T14:15:44.004Z,56.40
2022-12-19T14:18:43.371Z,56.20
2022-12-19T14:22:03.851Z,56.20
2022-12-19T14:24:09.906Z,56.00
2022-12-19T14:28:19.824Z,56.00
2022-12-19T14:29:38.647Z,55.90
2022-12-19T14:33:39.479Z,56.00
2022-12-19T14:36:05.844Z,56.00
2022-12-19T14:39:19.674Z,56.20
2022-12-19T14:41:08.533Z,56.00
2022-12-19T14:43:58.724Z,56.10
2022-12-19T14:52:51.091Z,56.10
2022-12-19T14:53:17.516Z,56.10
2022-12-19T14:54:31.361Z,56.10
2022-12-19T14:56:19.650Z,56.10
2022-12-19T14:58:52.136Z,56.20
2022-12-19T15:01:24.208Z,56.10
2022-12-19T15:04:52.516Z,56.10
2022-12-19T15:07:08.731Z,56.10
2022-12-19T15:10:59.934Z,56.20
2022-12-19T15:14:47.322Z,55.90
2022-12-19T15:15:20.432Z,55.90
2022-12-19T15:17:50.045Z,55.90
2022-12-19T15:20:17.177Z,55.90
2022-12-19T15:22:45.722Z,55.90
2022-12-19T15:25:43.937Z,55.80
2022-12-19T15:28:10.149Z,55.60
2022-12-19T15:30:39.040Z,55.70
2022-12-19T15:33:12.038Z,55.70
2022-12-19T15:35:38.784Z,55.80
2022-12-19T15:38:06.893Z,55.70
2022-12-19T15:40:33.693Z,55.90
2022-12-19T15:43:00.858Z,56.00
2022-12-19T15:45:29.326Z,56.20
2022-12-19T15:47:56.073Z,56.10
2022-12-19T15:50:24.693Z,55.80
2022-12-19T15:52:53.320Z,55.90
2022-12-19T15:55:24.617Z,56.00
2022-12-19T15:57:55.239Z,56.10
2022-12-19T16:00:23.702Z,55.90
2022-12-19T16:05:38.823Z,55.90
2022-12-19T16:08:10.301Z,56.00
2022-12-19T16:10:38.475Z,56.20
2022-12-19T16:13:05.282Z,56.00
2022-12-19T16:15:33.767Z,56.00
2022-12-19T16:18:03.229Z,56.00
2022-12-19T16:20:32.321Z,56.00
2022-12-19T16:22:59.271Z,56.20
2022-12-19T16:25:31.925Z,56.10
2022-12-19T16:28:01.080Z,56.20
2022-12-19T16:30:30.574Z,56.30
2022-12-19T16:32:57.346Z,56.30
2022-12-19T16:35:54.949Z,55.90
2022-12-19T16:38:12.578Z,56.00
2022-12-19T16:40:39.315Z,55.90
2022-12-19T16:43:14.400Z,55.90
2022-12-19T16:45:42.030Z,55.90
2022-12-19T16:48:18.685Z,55.70
2022-12-19T16:50:45.631Z,55.90
2022-12-19T16:53:12.463Z,55.80
2022-12-19T16:55:39.591Z,55.70
2022-12-19T16:58:14.563Z,55.80
2022-12-19T17:00:41.538Z,56.00
2022-12-19T17:03:20.412Z,55.70
2022-12-19T17:05:47.307Z,55.70
2022-12-19T17:08:14.067Z,55.60
2022-12-19T17:10:44.120Z,55.70
2022-12-19T17:13:14.239Z,55.80
2022-12-19T17:15:42.576Z,55.80
2022-12-19T17:18:13.938Z,55.80
2022-12-19T17:20:44.480Z,55.70
2022-12-19T17:23:14.391Z,55.60
2022-12-19T17:25:41.588Z,55.60
2022-12-19T17:28:08.328Z,55.70
2022-12-19T17:30:37.165Z,55.70
2022-12-19T17:33:04.402Z,55.60
2022-12-19T17:35:34.908Z,55.60
2022-12-19T17:38:02.101Z,55.60
2022-12-19T17:40:30.461Z,55.60
2022-12-19T17:42:58.249Z,55.60
2022-12-19T17:45:26.911Z,56.00
2022-12-19T17:48:02.755Z,55.80
2022-12-19T17:50:37.201Z,56.00
2022-12-19T17:53:04.620Z,55.90
2022-12-19T17:55:32.558Z,56.00
2022-12-19T17:57:59.382Z,55.80
2022-12-19T18:00:30.652Z,55.80
2022-12-19T18:03:02.238Z,55.90
2022-12-19T18:05:32.281Z,56.10
2022-12-19T18:07:59.020Z,56.20
2022-12-19T18:10:28.190Z,56.10
2022-12-19T18:12:55.179Z,55.90
2022-12-19T18:15:23.325Z,55.90
2022-12-19T18:17:52.403Z,55.80
2022-12-19T18:20:30.890Z,55.70
2022-12-19T18:22:59.279Z,55.80
2022-12-19T18:25:28.136Z,55.90
2022-12-19T18:27:54.905Z,55.80
2022-12-19T18:30:23.084Z,55.80
2022-12-19T18:32:52.426Z,55.80
2022-12-19T18:35:22.651Z,56.20
2022-12-19T18:37:50.522Z,56.30
2022-12-19T18:40:25.990Z,56.30
2022-12-19T18:42:56.112Z,56.40
2022-12-19T18:45:27.805Z,56.30
2022-12-19T18:47:56.866Z,56.30
2022-12-19T18:50:28.175Z,56.20
2022-12-19T18:52:55.660Z,56.40
2022-12-19T18:55:24.515Z,56.00
2022-12-19T18:57:51.449Z,56.20
2022-12-19T19:00:20.255Z,56.20
2022-12-19T19:02:50.844Z,56.10
2022-12-19T19:05:20.127Z,56.30
2022-12-19T19:07:48.567Z,56.30
2022-12-19T19:10:22.175Z,56.30
2022-12-19T19:12:49.115Z,56.20
2022-12-19T19:15:16.592Z,56.00
2022-12-19T19:17:44.708Z,56.00
2022-12-19T19:20:11.920Z,56.00
2022-12-19T19:22:38.789Z,56.60
2022-12-19T19:25:07.990Z,55.70
2022-12-19T19:27:35.394Z,55.90
2022-12-19T19:30:03.360Z,55.70
2022-12-19T19:32:30.195Z,55.70
2022-12-19T19:34:57.019Z,55.60
2022-12-19T19:37:23.819Z,55.90
2022-12-19T19:39:50.602Z,55.90
2022-12-19T19:42:18.764Z,55.80
2022-12-19T19:44:45.717Z,55.80
2022-12-19T19:47:12.769Z,55.90
2022-12-19T19:49:39.553Z,55.70
2022-12-19T19:52:06.430Z,55.70
2022-12-19T19:54:34.902Z,55.80
2022-12-19T19:57:01.619Z,55.60
2022-12-19T19:59:31.084Z,55.70
2022-12-19T20:01:58.191Z,55.80
2022-12-19T20:04:25.210Z,55.90
2022-12-19T20:06:52.048Z,55.80
2022-12-19T20:09:18.803Z,55.90
2022-12-19T20:11:45.635Z,56.00
2022-12-19T20:14:12.540Z,56.20
2022-12-19T20:16:40.641Z,56.30
2022-12-19T20:19:07.475Z,56.50
2022-12-19T20:21:34.229Z,56.20
2022-12-19T20:24:00.973Z,56.10
2022-12-19T20:26:27.761Z,56.40
2022-12-19T20:28:54.509Z,56.30
2022-12-19T20:31:23.304Z,56.40
2022-12-19T20:33:53.545Z,57.20
2022-12-19T20:36:21.478Z,56.40
2022-12-19T20:38:48.575Z,56.60
2022-12-19T20:41:15.760Z,56.60
2022-12-19T20:43:42.571Z,56.30
2022-12-19T20:46:11.604Z,56.10
2022-12-19T20:48:38.789Z,56.20
2022-12-19T20:51:07.823Z,56.40
2022-12-19T20:53:36.347Z,56.60
2022-12-19T20:56:06.564Z,56.50
2022-12-19T20:58:35.842Z,56.60
2022-12-19T21:01:05.043Z,57.30
2022-12-19T21:03:31.986Z,56.70
2022-12-19T21:05:58.867Z,56.70
2022-12-19T21:08:27.357Z,56.80
2022-12-19T21:10:54.484Z,57.00
2022-12-19T21:13:22.091Z,57.30
2022-12-19T21:15:52.260Z,57.40
2022-12-19T21:18:19.215Z,57.50
2022-12-19T21:20:45.977Z,57.00
2022-12-19T21:23:12.713Z,56.70
2022-12-19T21:25:40.845Z,56.70
2022-12-19T21:28:07.847Z,56.70
2022-12-19T21:30:34.617Z,56.70
2022-12-19T21:33:01.592Z,56.90
2022-12-19T21:35:28.371Z,57.10
2022-12-19T21:37:55.201Z,57.10
2022-12-19T21:40:22.016Z,57.20
2022-12-19T21:42:50.073Z,57.40
2022-12-19T21:45:16.970Z,57.40
2022-12-19T21:47:43.770Z,57.30
2022-12-19T21:50:13.374Z,57.20
2022-12-19T21:52:40.973Z,57.60
2022-12-19T21:55:09.097Z,57.30
2022-12-19T21:57:38.409Z,57.40
2022-12-19T22:00:08.088Z,57.30
2022-12-19T22:02:35.016Z,57.30
2022-12-19T22:05:01.893Z,57.10
2022-12-19T22:07:28.684Z,56.90
2022-12-19T22:09:55.581Z,57.10
2022-12-19T22:12:22.403Z,57.10
2022-12-19T22:14:49.222Z,57.40
2022-12-19T22:17:17.339Z,57.50
2022-12-19T22:19:44.958Z,57.70
2022-12-19T22:22:11.751Z,57.90
2022-12-19T22:24:38.519Z,57.80
2022-12-19T22:27:05.280Z,57.80
2022-12-19T22:29:32.011Z,57.70
2022-12-19T22:31:58.820Z,57.70
2022-12-19T22:34:26.868Z,57.30
2022-12-19T22:36:53.648Z,57.40
2022-12-19T22:39:21.297Z,57.70
2022-12-19T22:41:48.449Z,57.80
2022-12-19T22:44:16.692Z,57.80
2022-12-19T22:46:43.603Z,57.80
2022-12-19T22:49:12.123Z,57.60
2022-12-19T22:51:40.953Z,57.60
2022-12-19T22:54:08.087Z,57.30
2022-12-19T22:56:35.608Z,57.40
2022-12-19T22:59:05.365Z,58.00
2022-12-19T23:01:34.018Z,57.80
2022-12-19T23:04:02.432Z,58.10
2022-12-19T23:06:31.378Z,57.60
2022-12-19T23:09:00.116Z,57.50
2022-12-19T23:11:29.237Z,57.80
2022-12-19T23:13:56.076Z,57.60
2022-12-19T23:16:22.957Z,57.70
2022-12-19T23:18:49.711Z,57.30
2022-12-19T23:21:18.889Z,57.30
2022-12-19T23:23:47.604Z,57.00
2022-12-19T23:26:18.929Z,57.20
2022-12-19T23:28:50.991Z,57.10
2022-12-19T23:31:17.755Z,57.00
2022-12-19T23:33:44.523Z,56.90
2022-12-19T23:36:11.244Z,56.70
2022-12-19T23:38:38.010Z,56.50
2022-12-19T23:41:06.558Z,56.20
2022-12-19T23:43:35.700Z,56.10
2022-12-19T23:46:05.547Z,56.20
2022-12-19T23:48:32.408Z,56.40
2022-12-19T23:50:59.599Z,56.30
2022-12-19T23:53:26.497Z,56.10
2022-12-19T23:55:53.724Z,56.00
2022-12-19T23:58:24.575Z,55.90
